Time,TemperatureF,DewpointF,PressureIn,WindDirection,WindDirectionDegrees,WindSpeedMPH,WindSpeedGustMPH,Humidity,HourlyPrecipIn,Conditions,Clouds,dailyrainin,SoftwareType,DateUTC
2013-10-18 00:01:00,64.5,58.9,30.09,ENE,68,0.0,0.0,82,0.00,,---,0.00,VWS V14.01,2013-10-18 05:01:00,
2013-10-18 00:06:00,64.5,58.9,30.09,ENE,68,0.0,0.0,82,0.00,,---,0.00,VWS V14.01,2013-10-18 05:06:00,
2013-10-18 00:11:00,64.5,58.9,30.09,ENE,68,0.0,0.0,82,0.00,,---,0.00,VWS V14.01,2013-10-18 05:11:00,
2013-10-18 00:17:00,64.2,58.6,30.09,ENE,68,0.0,0.0,82,0.00,,---,0.00,VWS V14.01,2013-10-18 05:17:00,
2013-10-18 00:22:00,64.4,58.8,30.09,ENE,68,0.0,0.0,82,0.00,,---,0.00,VWS V14.01,2013-10-18 05:22:00,
2013-10-18 00:27:00,64.0,58.4,30.09,ENE,68,0.0,0.0,82,0.00,,---,0.00,VWS V14.01,2013-10-18 05:27:00,
2013-10-18 00:32:00,64.0,58.4,30.09,ESE,112,0.0,0.0,82,0.00,,---,0.00,VWS V14.01,2013-10-18 05:32:00,
2013-10-18 00:37:00,64.0,58.4,30.08,ESE,112,0.0,0.0,82,0.00,,---,0.00,VWS V14.01,2013-10-18 05:37:00,
2013-10-18 00:42:00,64.2,58.6,30.09,ESE,112,0.0,0.0,82,0.00,,---,0.00,VWS V14.01,2013-10-18 05:42:00,
2013-10-18 00:47:00,64.0,58.4,30.09,ENE,68,0.0,0.0,82,0.00,,---,0.00,VWS V14.01,2013-10-18 05:47:00,
2013-10-18 00:52:00,64.0,58.4,30.09,ENE,68,0.0,0.0,82,0.00,,---,0.00,VWS V14.01,2013-10-18 05:52:00,
2013-10-18 00:57:00,64.0,58.4,30.09,ENE,68,0.0,0.0,82,0.00,,---,0.00,VWS V14.01,2013-10-18 05:57:00,
2013-10-18 01:02:00,64.0,58.4,30.09,ENE,68,0.0,0.0,82,0.00,,---,0.00,VWS V14.01,2013-10-18 06:02:00,
2013-10-18 01:07:00,64.0,58.4,30.09,ENE,68,0.0,0.0,82,0.00,,---,0.00,VWS V14.01,2013-10-18 06:07:00,
2013-10-18 01:12:00,64.0,58.4,30.09,ENE,68,0.0,0.0,82,0.00,,---,0.00,VWS V14.01,2013-10-18 06:12:00,
2013-10-18 01:17:00,64.0,58.4,30.09,ENE,68,0.0,0.0,82,0.00,,---,0.00,VWS V14.01,2013-10-18 06:17:00,
2013-10-18 01:22:00,64.0,58.4,30.09,ENE,68,0.0,0.0,82,0.00,,---,0.00,VWS V14.01,2013-10-18 06:22:00,
2013-10-18 01:27:00,64.0,58.4,30.09,ENE,68,0.0,0.0,82,0.00,,---,0.00,VWS V14.01,2013-10-18 06:27:00,
2013-10-18 01:32:00,63.6,58.0,30.09,ENE,68,0.0,0.0,82,0.00,,---,0.00,VWS V14.01,2013-10-18 06:32:00,
2013-10-18 01:37:00,63.6,58.0,30.09,ENE,68,0.0,0.0,82,0.00,,---,0.00,VWS V14.01,2013-10-18 06:37:00,
2013-10-18 01:42:00,63.5,57.9,30.09,ENE,68,0.0,0.0,82,0.00,,---,0.00,VWS V14.01,2013-10-18 06:42:00,
2013-10-18 01:47:00,63.3,57.7,30.09,ENE,68,0.0,0.0,82,0.00,,---,0.00,VWS V14.01,2013-10-18 06:47:00,
2013-10-18 01:52:00,63.3,57.7,30.09,ENE,68,0.0,0.0,82,0.00,,---,0.00,VWS V14.01,2013-10-18 06:52:00,
2013-10-18 01:57:00,63.3,57.7,30.09,ENE,68,0.0,0.0,82,0.00,,---,0.00,VWS V14.01,2013-10-18 06:57:00,
2013-10-18 02:02:00,63.3,57.7,30.09,ENE,68,0.0,0.0,82,0.00,,---,0.00,VWS V14.01,2013-10-18 07:02:00,
2013-10-18 02:07:00,63.3,57.7,30.09,ENE,68,0.0,0.0,82,0.00,,---,0.00,VWS V14.01,2013-10-18 07:07:00,
2013-10-18 02:13:00,63.1,57.5,30.09,NE,45,0.0,0.0,82,0.00,,---,0.00,VWS V14.01,2013-10-18 07:13:00,
2013-10-18 02:18:00,63.3,58.1,30.09,ENE,68,0.0,0.0,83,0.00,,---,0.00,VWS V14.01,2013-10-18 07:18:00,
2013-10-18 02:23:00,63.3,58.1,30.09,ENE,68,0.0,0.0,83,0.00,,---,0.00,VWS V14.01,2013-10-18 07:23:00,
2013-10-18 02:28:00,63.3,58.1,30.09,ENE,68,0.0,0.0,83,0.00,,---,0.00,VWS V14.01,2013-10-18 07:28:00,
2013-10-18 02:33:00,63.3,58.1,30.09,ENE,68,0.0,0.0,83,0.00,,---,0.00,VWS V14.01,2013-10-18 07:33:00,
2013-10-18 02:38:00,63.3,58.1,30.10,ENE,68,0.0,0.0,83,0.00,,---,0.00,VWS V14.01,2013-10-18 07:38:00,
2013-10-18 02:43:00,63.3,58.1,30.09,ENE,68,0.0,0.0,83,0.00,,---,0.00,VWS V14.01,2013-10-18 07:43:00,
2013-10-18 02:48:00,63.3,58.1,30.09,ENE,68,0.0,0.0,83,0.00,,---,0.00,VWS V14.01,2013-10-18 07:48:00,
2013-10-18 02:53:00,63.1,57.9,30.09,ENE,68,0.0,0.0,83,0.00,,---,0.00,VWS V14.01,2013-10-18 07:53:00,
2013-10-18 02:58:00,63.3,58.1,30.09,ENE,68,0.0,0.0,83,0.00,,---,0.00,VWS V14.01,2013-10-18 07:58:00,
2013-10-18 03:03:00,63.1,57.5,30.09,ENE,68,0.0,0.0,82,0.00,,---,0.00,VWS V14.01,2013-10-18 08:03:00,
2013-10-18 03:08:00,63.1,57.9,30.09,ENE,68,0.0,0.0,83,0.00,,---,0.00,VWS V14.01,2013-10-18 08:08:00,
2013-10-18 03:13:00,63.1,57.9,30.09,ENE,68,0.0,0.0,83,0.00,,---,0.00,VWS V14.01,2013-10-18 08:13:00,
2013-10-18 03:18:00,63.1,57.9,30.09,ENE,68,0.0,0.0,83,0.00,,---,0.00,VWS V14.01,2013-10-18 08:18:00,
2013-10-18 03:23:00,63.1,57.9,30.08,ENE,68,0.0,0.0,83,0.00,,---,0.00,VWS V14.01,2013-10-18 08:23:00,
2013-10-18 03:28:00,62.9,57.7,30.08,ENE,68,0.0,0.0,83,0.00,,---,0.00,VWS V14.01,2013-10-18 08:28:00,
2013-10-18 03:33:00,62.9,57.7,30.07,ENE,68,0.0,0.0,83,0.00,,---,0.00,VWS V14.01,2013-10-18 08:33:00,
2013-10-18 03:38:00,62.9,57.7,30.07,NE,45,0.0,0.0,83,0.00,,---,0.00,VWS V14.01,2013-10-18 08:38:00,
2013-10-18 03:43:00,62.9,57.7,30.07,NE,45,0.0,0.0,83,0.00,,---,0.00,VWS V14.01,2013-10-18 08:43:00,
2013-10-18 03:48:00,63.1,57.9,30.07,NE,45,0.0,0.0,83,0.00,,---,0.00,VWS V14.01,2013-10-18 08:48:00,
2013-10-18 03:53:00,62.9,57.7,30.07,NE,45,0.0,0.0,83,0.00,,---,0.00,VWS V14.01,2013-10-18 08:53:00,
2013-10-18 03:58:00,63.3,58.1,30.08,NE,45,0.0,0.0,83,0.00,,---,0.00,VWS V14.01,2013-10-18 08:58:00,
2013-10-18 04:03:00,63.3,58.1,30.07,NE,45,0.0,0.0,83,0.00,,---,0.00,VWS V14.01,2013-10-18 09:03:00,
2013-10-18 04:08:00,63.3,58.1,30.07,NE,45,0.0,0.0,83,0.00,,---,0.00,VWS V14.01,2013-10-18 09:08:00,
2013-10-18 04:13:00,63.3,58.1,30.06,ENE,68,0.0,0.0,83,0.00,,---,0.00,VWS V14.01,2013-10-18 09:13:00,
2013-10-18 04:18:00,63.3,58.1,30.06,NE,45,0.0,0.0,83,0.00,,---,0.00,VWS V14.01,2013-10-18 09:18:00,
2013-10-18 04:23:00,63.3,58.1,30.06,NE,45,0.0,0.0,83,0.00,,---,0.00,VWS V14.01,2013-10-18 09:23:00,
2013-10-18 04:28:00,63.3,58.1,30.06,NE,45,0.0,0.0,83,0.00,,---,0.00,VWS V14.01,2013-10-18 09:28:00,
2013-10-18 04:34:00,63.1,57.9,30.06,ENE,68,0.0,0.0,83,0.00,,---,0.00,VWS V14.01,2013-10-18 09:34:00,
2013-10-18 04:39:00,63.3,58.1,30.06,ENE,68,0.0,0.0,83,0.00,,---,0.00,VWS V14.01,2013-10-18 09:39:00,
2013-10-18 04:44:00,63.3,58.1,30.06,ENE,68,0.0,0.0,83,0.00,,---,0.00,VWS V14.01,2013-10-18 09:44:00,
2013-10-18 04:49:00,63.3,58.1,30.06,NE,45,0.0,0.0,83,0.00,,---,0.00,VWS V14.01,2013-10-18 09:49:00,
2013-10-18 04:54:00,63.3,58.1,30.05,NE,45,0.0,0.0,83,0.00,,---,0.00,VWS V14.01,2013-10-18 09:54:00,
2013-10-18 04:59:00,63.3,57.7,30.05,ENE,68,0.0,0.0,82,0.00,,---,0.00,VWS V14.01,2013-10-18 09:59:00,
2013-10-18 05:04:00,63.3,58.1,30.05,ENE,68,0.0,0.0,83,0.00,,---,0.00,VWS V14.01,2013-10-18 10:04:00,
2013-10-18 05:09:00,63.3,58.1,30.05,NNE,22,0.0,0.0,83,0.00,,---,0.00,VWS V14.01,2013-10-18 10:09:00,
2013-10-18 05:14:00,63.3,58.1,30.05,ENE,68,0.0,0.0,83,0.00,,---,0.00,VWS V14.01,2013-10-18 10:14:00,
2013-10-18 05:19:00,63.5,58.2,30.05,ESE,112,0.0,0.0,83,0.00,,---,0.00,VWS V14.01,2013-10-18 10:19:00,
2013-10-18 05:24:00,63.3,57.7,30.05,SE,135,0.0,0.0,82,0.00,,---,0.00,VWS V14.01,2013-10-18 10:24:00,
2013-10-18 05:29:00,63.5,57.9,30.06,ENE,68,0.0,0.0,82,0.00,,---,0.00,VWS V14.01,2013-10-18 10:29:00,
2013-10-18 05:34:00,63.5,57.9,30.06,ENE,68,0.0,0.0,82,0.00,,---,0.00,VWS V14.01,2013-10-18 10:34:00,
2013-10-18 05:39:00,63.6,58.0,30.05,ESE,112,0.0,0.0,82,0.00,,---,0.00,VWS V14.01,2013-10-18 10:39:00,
2013-10-18 05:44:00,63.6,58.0,30.05,SE,135,0.0,0.0,82,0.00,,---,0.00,VWS V14.01,2013-10-18 10:44:00,
2013-10-18 05:49:00,63.8,58.2,30.05,ENE,68,0.0,0.0,82,0.00,,---,0.00,VWS V14.01,2013-10-18 10:49:00,
2013-10-18 05:54:00,63.8,58.2,30.05,NNE,22,0.0,0.0,82,0.00,,---,0.00,VWS V14.01,2013-10-18 10:54:00,
2013-10-18 05:59:00,63.8,58.2,30.06,East,90,0.0,0.0,82,0.00,,---,0.00,VWS V14.01,2013-10-18 10:59:00,
2013-10-18 06:04:00,64.0,58.7,30.06,ESE,112,0.0,0.0,83,0.00,,---,0.00,VWS V14.01,2013-10-18 11:04:00,
2013-10-18 06:09:00,64.2,58.9,30.06,East,90,0.0,0.0,83,0.00,,---,0.00,VWS V14.01,2013-10-18 11:09:00,
2013-10-18 06:14:00,64.4,59.1,30.06,NE,45,0.0,0.0,83,0.00,,---,0.00,VWS V14.01,2013-10-18 11:14:00,
2013-10-18 06:19:00,64.5,59.2,30.06,ESE,112,0.0,0.0,83,0.00,,---,0.00,VWS V14.01,2013-10-18 11:19:00,
2013-10-18 06:24:00,64.7,59.4,30.07,East,90,0.0,0.0,83,0.00,,---,0.00,VWS V14.01,2013-10-18 11:24:00,
2013-10-18 06:29:00,64.9,59.6,30.06,SSE,158,0.0,0.0,83,0.00,,---,0.00,VWS V14.01,2013-10-18 11:29:00,
2013-10-18 06:34:00,65.1,60.2,30.07,NE,45,0.0,0.0,84,0.00,,---,0.00,VWS V14.01,2013-10-18 11:34:00,
2013-10-18 06:39:00,65.3,60.0,30.07,NE,45,0.0,0.0,83,0.00,,---,0.00,VWS V14.01,2013-10-18 11:39:00,
2013-10-18 06:45:00,65.3,60.0,30.07,ENE,68,0.0,0.0,83,0.00,,---,0.00,VWS V14.01,2013-10-18 11:45:00,
2013-10-18 06:50:00,65.4,60.1,30.07,SE,135,0.0,0.0,83,0.00,,---,0.00,VWS V14.01,2013-10-18 11:50:00,
2013-10-18 06:55:00,65.4,60.1,30.07,SE,135,0.0,0.0,83,0.00,,---,0.00,VWS V14.01,2013-10-18 11:55:00,
2013-10-18 07:00:00,65.6,60.6,30.07,NNE,22,1.3,1.3,84,0.00,,---,0.00,VWS V14.01,2013-10-18 12:00:00,
2013-10-18 07:05:00,65.6,60.6,30.06,NE,45,0.0,2.4,84,0.00,,---,0.00,VWS V14.01,2013-10-18 12:05:00,
2013-10-18 07:10:00,65.6,60.6,30.06,East,90,0.0,1.7,84,0.00,,---,0.00,VWS V14.01,2013-10-18 12:10:00,
2013-10-18 07:15:00,65.8,60.8,30.07,SE,135,0.0,0.0,84,0.00,,---,0.00,VWS V14.01,2013-10-18 12:15:00,
2013-10-18 07:20:00,65.8,60.8,30.07,SE,135,0.0,0.0,84,0.00,,---,0.00,VWS V14.01,2013-10-18 12:20:00,
2013-10-18 07:25:00,65.8,60.8,30.07,East,90,0.0,0.0,84,0.00,,---,0.00,VWS V14.01,2013-10-18 12:25:00,
2013-10-18 07:30:00,65.8,60.8,30.07,ESE,112,0.0,0.0,84,0.00,,---,0.00,VWS V14.01,2013-10-18 12:30:00,
2013-10-18 07:35:00,66.0,61.0,30.07,ESE,112,0.0,0.0,84,0.00,,---,0.00,VWS V14.01,2013-10-18 12:35:00,
2013-10-18 07:40:00,66.0,61.0,30.08,ENE,68,0.0,0.0,84,0.00,,---,0.00,VWS V14.01,2013-10-18 12:40:00,
2013-10-18 07:45:00,66.0,61.0,30.08,NE,45,0.0,0.0,84,0.00,,---,0.00,VWS V14.01,2013-10-18 12:45:00,
2013-10-18 07:50:00,66.2,61.2,30.07,ENE,68,0.0,0.0,84,0.00,,---,0.00,VWS V14.01,2013-10-18 12:50:00,
2013-10-18 07:55:00,66.2,61.2,30.07,NNE,22,0.0,0.0,84,0.00,,---,0.00,VWS V14.01,2013-10-18 12:55:00,
2013-10-18 08:00:00,66.3,61.3,30.07,NNE,22,0.0,0.0,84,0.00,,---,0.00,VWS V14.01,2013-10-18 13:00:00,
2013-10-18 08:05:00,66.3,61.3,30.08,ENE,68,0.0,0.0,84,0.00,,---,0.00,VWS V14.01,2013-10-18 13:05:00,
2013-10-18 08:10:00,66.3,61.3,30.08,ENE,68,0.0,0.0,84,0.00,,---,0.00,VWS V14.01,2013-10-18 13:10:00,
2013-10-18 08:15:00,66.5,61.5,30.08,SE,135,0.0,0.0,84,0.00,,---,0.00,VWS V14.01,2013-10-18 13:15:00,
2013-10-18 08:20:00,66.7,61.7,30.09,ENE,68,0.0,0.0,84,0.00,,---,0.00,VWS V14.01,2013-10-18 13:20:00,
2013-10-18 08:25:00,66.9,62.2,30.08,ESE,112,0.0,0.0,85,0.00,,---,0.00,VWS V14.01,2013-10-18 13:25:00,
2013-10-18 08:30:00,67.1,62.1,30.08,ENE,68,0.0,0.0,84,0.00,,---,0.00,VWS V14.01,2013-10-18 13:30:00,
2013-10-18 08:35:00,67.2,62.2,30.08,NW,315,0.0,0.0,84,0.00,,---,0.00,VWS V14.01,2013-10-18 13:35:00,
2013-10-18 08:40:00,67.4,62.4,30.08,NE,45,0.0,0.0,84,0.00,,---,0.00,VWS V14.01,2013-10-18 13:40:00,
2013-10-18 08:45:00,67.4,62.4,30.08,East,90,0.0,0.0,84,0.00,,---,0.00,VWS V14.01,2013-10-18 13:45:00,
2013-10-18 08:50:00,67.6,62.6,30.07,ESE,112,0.0,0.0,84,0.00,,---,0.00,VWS V14.01,2013-10-18 13:50:00,
2013-10-18 08:55:00,68.0,63.0,30.07,ESE,112,0.0,0.0,84,0.00,,---,0.00,VWS V14.01,2013-10-18 13:55:00,
2013-10-18 09:00:00,68.1,63.1,30.07,East,90,4.6,4.6,84,0.00,,---,0.00,VWS V14.01,2013-10-18 14:00:00,
2013-10-18 09:06:00,68.3,63.6,30.07,East,90,1.7,1.7,85,0.00,,---,0.00,VWS V14.01,2013-10-18 14:06:00,
2013-10-18 09:11:00,68.5,63.8,30.07,NNW,338,2.0,2.0,85,0.00,,---,0.00,VWS V14.01,2013-10-18 14:11:00,
2013-10-18 09:16:00,68.7,64.0,30.08,NNE,22,1.7,1.7,85,0.00,,---,0.00,VWS V14.01,2013-10-18 14:16:00,
2013-10-18 09:21:00,68.9,63.9,30.08,ENE,68,0.0,0.0,84,0.00,,---,0.00,VWS V14.01,2013-10-18 14:21:00,
2013-10-18 09:26:00,69.0,64.0,30.08,North,0,0.0,0.0,84,0.00,,---,0.00,VWS V14.01,2013-10-18 14:26:00,
2013-10-18 09:31:00,69.2,64.2,30.09,ENE,68,0.0,0.0,84,0.00,,---,0.00,VWS V14.01,2013-10-18 14:31:00,
2013-10-18 09:36:00,69.4,64.4,30.08,SSE,158,0.0,0.0,84,0.00,,---,0.00,VWS V14.01,2013-10-18 14:36:00,
2013-10-18 09:41:00,69.8,64.8,30.08,East,90,0.0,0.0,84,0.00,,---,0.00,VWS V14.01,2013-10-18 14:41:00,
2013-10-18 09:46:00,69.9,64.8,30.08,ENE,68,0.0,0.0,84,0.00,,---,0.00,VWS V14.01,2013-10-18 14:46:00,
2013-10-18 09:51:00,70.1,65.1,30.09,ESE,112,0.0,0.0,84,0.00,,---,0.00,VWS V14.01,2013-10-18 14:51:00,
2013-10-18 09:56:00,70.1,65.1,30.08,ENE,68,0.0,0.0,84,0.00,,---,0.00,VWS V14.01,2013-10-18 14:56:00,
2013-10-18 10:01:00,70.5,65.4,30.09,ESE,112,0.0,0.0,84,0.00,,---,0.00,VWS V14.01,2013-10-18 15:01:00,
2013-10-18 10:06:00,70.7,65.3,30.09,ENE,68,2.2,2.2,83,0.00,,---,0.00,VWS V14.01,2013-10-18 15:06:00,
2013-10-18 10:11:00,71.0,65.6,30.09,ENE,68,0.0,0.0,83,0.00,,---,0.00,VWS V14.01,2013-10-18 15:11:00,
2013-10-18 10:16:00,71.2,65.8,30.09,NE,45,2.0,2.0,83,0.00,,---,0.00,VWS V14.01,2013-10-18 15:16:00,
2013-10-18 10:21:00,71.4,66.0,30.08,NE,45,2.9,2.9,83,0.00,,---,0.00,VWS V14.01,2013-10-18 15:21:00,
2013-10-18 10:26:00,71.7,66.3,30.08,NE,45,0.0,0.0,83,0.00,,---,0.00,VWS V14.01,2013-10-18 15:26:00,
2013-10-18 10:31:00,71.9,66.5,30.08,ESE,112,0.0,0.0,83,0.00,,---,0.00,VWS V14.01,2013-10-18 15:31:00,
2013-10-18 10:36:00,71.9,66.1,30.08,ENE,68,0.0,0.0,82,0.00,,---,0.00,VWS V14.01,2013-10-18 15:36:00,
2013-10-18 10:41:00,72.3,66.5,30.08,SE,135,11.8,11.8,82,0.00,,---,0.00,VWS V14.01,2013-10-18 15:41:00,
2013-10-18 10:46:00,72.3,65.4,30.07,ENE,68,1.3,1.3,79,0.00,,---,0.00,VWS V14.01,2013-10-18 15:46:00,
2013-10-18 10:51:00,72.6,65.3,30.07,ESE,112,2.2,2.2,78,0.00,,---,0.00,VWS V14.01,2013-10-18 15:51:00,
2013-10-18 10:56:00,72.8,65.2,30.08,ESE,112,1.5,1.5,77,0.00,,---,0.00,VWS V14.01,2013-10-18 15:56:00,
2013-10-18 11:01:00,72.8,65.2,30.08,ESE,112,3.1,3.1,77,0.00,,---,0.00,VWS V14.01,2013-10-18 16:01:00,
2013-10-18 11:06:00,73.0,65.0,30.08,SE,135,0.0,0.0,76,0.00,,---,0.00,VWS V14.01,2013-10-18 16:06:00,
2013-10-18 11:11:00,73.0,64.6,30.08,ESE,112,5.8,5.8,75,0.00,,---,0.00,VWS V14.01,2013-10-18 16:11:00,
2013-10-18 11:17:00,73.0,64.2,30.08,NE,45,0.0,0.0,74,0.00,,---,0.00,VWS V14.01,2013-10-18 16:17:00,
2013-10-18 11:22:00,73.0,63.8,30.08,NE,45,1.5,1.5,73,0.00,,---,0.00,VWS V14.01,2013-10-18 16:22:00,
2013-10-18 11:27:00,73.0,63.8,30.08,ESE,112,2.9,3.5,73,0.00,,---,0.00,VWS V14.01,2013-10-18 16:27:00,
2013-10-18 11:32:00,73.5,64.3,30.07,ESE,112,0.0,0.6,73,0.00,,---,0.00,VWS V14.01,2013-10-18 16:32:00,
2013-10-18 11:37:00,73.5,63.9,30.08,SSE,158,4.4,4.4,72,0.00,,---,0.00,VWS V14.01,2013-10-18 16:37:00,
2013-10-18 11:42:00,73.5,63.9,30.08,East,90,2.9,2.9,72,0.00,,---,0.00,VWS V14.01,2013-10-18 16:42:00,
2013-10-18 11:47:00,73.5,63.5,30.08,ESE,112,1.1,1.1,71,0.00,,---,0.00,VWS V14.01,2013-10-18 16:47:00,
2013-10-18 11:52:00,73.5,63.5,30.07,South,180,2.6,2.6,71,0.00,,---,0.00,VWS V14.01,2013-10-18 16:52:00,
2013-10-18 11:57:00,73.5,63.1,30.07,South,180,3.1,3.1,70,0.00,,---,0.00,VWS V14.01,2013-10-18 16:57:00,
2013-10-18 12:02:00,73.5,63.1,30.07,ESE,112,0.0,0.0,70,0.00,,---,0.00,VWS V14.01,2013-10-18 17:02:00,
2013-10-18 12:07:00,73.7,63.3,30.07,North,0,0.0,0.0,70,0.00,,---,0.00,VWS V14.01,2013-10-18 17:07:00,
2013-10-18 12:12:00,73.9,63.5,30.07,SE,135,2.0,2.0,70,0.00,,---,0.00,VWS V14.01,2013-10-18 17:12:00,
2013-10-18 12:17:00,73.7,62.9,30.06,NE,45,0.0,0.0,69,0.00,,---,0.00,VWS V14.01,2013-10-18 17:17:00,
2013-10-18 12:22:00,73.5,62.7,30.06,South,180,0.0,0.0,69,0.00,,---,0.00,VWS V14.01,2013-10-18 17:22:00,
2013-10-18 12:27:00,73.5,62.3,30.06,South,180,7.8,7.8,68,0.00,,---,0.00,VWS V14.01,2013-10-18 17:27:00,
2013-10-18 12:32:00,73.2,62.0,30.07,ESE,112,6.0,6.0,68,0.00,,---,0.00,VWS V14.01,2013-10-18 17:32:00,
2013-10-18 12:35:00,73.0,61.8,30.07,SE,135,4.4,4.4,68,0.00,,---,0.00,VWS V14.01,2013-10-18 17:35:00,
2013-10-18 12:40:00,72.8,61.6,30.07,ESE,112,7.3,7.3,68,0.00,,---,0.00,VWS V14.01,2013-10-18 17:40:00,
2013-10-18 12:45:00,72.6,61.4,30.06,SE,135,5.1,5.1,68,0.00,,---,0.00,VWS V14.01,2013-10-18 17:45:00,
2013-10-18 12:50:00,72.5,61.8,30.07,SE,135,1.7,1.7,69,0.00,,---,0.00,VWS V14.01,2013-10-18 17:50:00,
2013-10-18 12:55:00,72.5,61.8,30.06,ESE,112,0.0,0.0,69,0.00,,---,0.00,VWS V14.01,2013-10-18 17:55:00,
2013-10-18 13:00:00,72.5,62.2,30.06,ENE,68,0.8,0.8,70,0.00,,---,0.00,VWS V14.01,2013-10-18 18:00:00,
2013-10-18 13:05:00,72.3,62.8,30.06,ESE,112,0.0,0.0,72,0.00,,---,0.00,VWS V14.01,2013-10-18 18:05:00,
2013-10-18 13:10:00,72.3,62.8,30.06,ESE,112,0.0,0.0,72,0.00,,---,0.00,VWS V14.01,2013-10-18 18:10:00,
2013-10-18 13:15:00,72.1,63.0,30.05,SE,135,0.0,0.0,73,0.00,,---,0.00,VWS V14.01,2013-10-18 18:15:00,
2013-10-18 13:20:00,72.3,63.6,30.04,ESE,112,1.7,1.7,74,0.00,,---,0.00,VWS V14.01,2013-10-18 18:20:00,
2013-10-18 13:25:00,72.3,63.6,30.05,SSE,158,0.0,0.0,74,0.00,,---,0.00,VWS V14.01,2013-10-18 18:25:00,
2013-10-18 13:31:00,72.3,63.6,30.05,SE,135,0.0,0.0,74,0.00,,---,0.00,VWS V14.01,2013-10-18 18:31:00,
2013-10-18 13:36:00,72.3,63.9,30.04,SSE,158,0.0,0.0,75,0.00,,---,0.00,VWS V14.01,2013-10-18 18:36:00,
2013-10-18 13:41:00,72.3,63.9,30.04,ESE,112,4.0,4.0,75,0.00,,---,0.00,VWS V14.01,2013-10-18 18:41:00,
2013-10-18 13:46:00,72.5,63.8,30.03,ESE,112,11.1,11.1,74,0.00,,---,0.00,VWS V14.01,2013-10-18 18:46:00,
2013-10-18 13:51:00,72.6,63.8,30.03,SE,135,0.0,0.0,74,0.00,,---,0.00,VWS V14.01,2013-10-18 18:51:00,
2013-10-18 13:56:00,72.8,64.0,30.04,SE,135,1.7,3.5,74,0.00,,---,0.00,VWS V14.01,2013-10-18 18:56:00,
2013-10-18 14:01:00,72.6,63.5,30.03,SSE,158,0.0,6.0,73,0.00,,---,0.00,VWS V14.01,2013-10-18 19:01:00,
2013-10-18 14:06:00,72.8,63.7,30.03,SE,135,6.7,6.7,73,0.00,,---,0.00,VWS V14.01,2013-10-18 19:06:00,
2013-10-18 14:11:00,72.8,63.7,30.02,East,90,5.3,5.3,73,0.00,,---,0.00,VWS V14.01,2013-10-18 19:11:00,
2013-10-18 14:16:00,73.0,63.8,30.01,East,90,0.0,3.5,73,0.00,,---,0.00,VWS V14.01,2013-10-18 19:16:00,
2013-10-18 14:21:00,73.0,63.8,30.01,ESE,112,0.0,0.0,73,0.00,,---,0.00,VWS V14.01,2013-10-18 19:21:00,
2013-10-18 14:26:00,73.2,63.6,30.01,East,90,2.9,2.9,72,0.00,,---,0.00,VWS V14.01,2013-10-18 19:26:00,
2013-10-18 14:31:00,73.7,64.1,30.01,SE,135,2.4,2.4,72,0.00,,---,0.00,VWS V14.01,2013-10-18 19:31:00,
2013-10-18 14:36:00,74.1,64.5,30.01,SSE,158,7.1,7.1,72,0.00,,---,0.00,VWS V14.01,2013-10-18 19:36:00,
2013-10-18 14:41:00,74.4,64.4,30.01,ESE,112,2.0,2.0,71,0.00,,---,0.00,VWS V14.01,2013-10-18 19:41:00,
2013-10-18 14:46:00,74.4,64.0,30.01,SE,135,7.6,7.6,70,0.00,,---,0.00,VWS V14.01,2013-10-18 19:46:00,
2013-10-18 14:51:00,74.6,63.8,30.00,SSE,158,4.4,4.4,69,0.00,,---,0.00,VWS V14.01,2013-10-18 19:51:00,
2013-10-18 14:56:00,74.4,64.0,30.00,West,270,0.0,0.0,70,0.04,,---,0.04,VWS V14.01,2013-10-18 19:56:00,
2013-10-18 15:01:00,74.1,63.7,30.00,ESE,112,7.1,7.1,70,0.04,,---,0.04,VWS V14.01,2013-10-18 20:01:00,
2013-10-18 15:06:00,73.7,63.7,29.99,SE,135,2.0,2.0,71,0.04,,---,0.04,VWS V14.01,2013-10-18 20:06:00,
2013-10-18 15:11:00,73.7,64.1,29.99,SSE,158,0.0,0.0,72,0.04,,---,0.04,VWS V14.01,2013-10-18 20:11:00,
2013-10-18 15:16:00,73.7,64.1,29.99,ENE,68,4.2,4.2,72,0.04,,---,0.04,VWS V14.01,2013-10-18 20:16:00,
2013-10-18 15:21:00,74.1,64.5,29.99,ENE,68,0.0,0.0,72,0.04,,---,0.04,VWS V14.01,2013-10-18 20:21:00,
2013-10-18 15:26:00,74.3,64.3,29.99,ENE,68,0.0,0.0,71,0.04,,---,0.04,VWS V14.01,2013-10-18 20:26:00,
2013-10-18 15:31:00,74.4,64.4,29.99,East,90,0.0,0.0,71,0.04,,---,0.04,VWS V14.01,2013-10-18 20:31:00,
2013-10-18 15:37:00,74.6,64.2,29.99,SE,135,0.0,0.0,70,0.04,,---,0.04,VWS V14.01,2013-10-18 20:37:00,
2013-10-18 15:42:00,74.6,64.2,29.99,ESE,112,1.7,1.7,70,0.04,,---,0.04,VWS V14.01,2013-10-18 20:42:00,
2013-10-18 15:47:00,74.8,64.0,29.98,NE,45,0.0,0.0,69,0.04,,---,0.04,VWS V14.01,2013-10-18 20:47:00,
2013-10-18 15:52:00,75.0,64.2,29.98,SSE,158,4.9,4.9,69,0.04,,---,0.04,VWS V14.01,2013-10-18 20:52:00,
2013-10-18 15:57:00,75.0,63.7,29.98,NE,45,0.0,2.9,68,0.00,,---,0.04,VWS V14.01,2013-10-18 20:57:00,
2013-10-18 16:02:00,74.8,63.5,29.98,SSE,158,0.0,0.0,68,0.00,,---,0.04,VWS V14.01,2013-10-18 21:02:00,
2013-10-18 16:07:00,75.0,64.2,29.98,SSE,158,4.9,4.9,69,0.00,,---,0.04,VWS V14.01,2013-10-18 21:07:00,
2013-10-18 16:12:00,75.2,64.3,29.97,ESE,112,0.0,0.0,69,0.00,,---,0.04,VWS V14.01,2013-10-18 21:12:00,
2013-10-18 16:17:00,75.3,64.4,29.97,ESE,112,1.1,1.1,69,0.00,,---,0.04,VWS V14.01,2013-10-18 21:17:00,
2013-10-18 16:22:00,75.3,64.0,29.97,ESE,112,0.0,0.0,68,0.00,,---,0.04,VWS V14.01,2013-10-18 21:22:00,
2013-10-18 16:27:00,75.3,63.6,29.97,SSE,158,3.3,3.3,67,0.00,,---,0.04,VWS V14.01,2013-10-18 21:27:00,
2013-10-18 16:32:00,75.3,63.2,29.98,SE,135,2.6,2.6,66,0.00,,---,0.04,VWS V14.01,2013-10-18 21:32:00,
2013-10-18 16:37:00,75.3,63.2,29.98,ESE,112,0.0,0.0,66,0.00,,---,0.04,VWS V14.01,2013-10-18 21:37:00,
2013-10-18 16:42:00,75.5,63.8,29.98,SE,135,5.8,5.8,67,0.00,,---,0.04,VWS V14.01,2013-10-18 21:42:00,
2013-10-18 16:47:00,75.5,63.8,29.98,ENE,68,0.0,0.0,67,0.00,,---,0.04,VWS V14.01,2013-10-18 21:47:00,
2013-10-18 16:52:00,75.5,63.8,29.98,ENE,68,8.7,8.7,67,0.00,,---,0.04,VWS V14.01,2013-10-18 21:52:00,
2013-10-18 16:57:00,75.5,63.4,29.98,SSE,158,2.0,2.0,66,0.00,,---,0.04,VWS V14.01,2013-10-18 21:57:00,
2013-10-18 17:02:00,75.3,63.2,29.98,SE,135,3.8,3.8,66,0.00,,---,0.04,VWS V14.01,2013-10-18 22:02:00,
2013-10-18 17:07:00,75.5,62.9,29.98,ESE,112,5.1,5.1,65,0.00,,---,0.04,VWS V14.01,2013-10-18 22:07:00,
2013-10-18 17:12:00,75.3,62.7,29.98,NNW,338,2.4,2.4,65,0.00,,---,0.04,VWS V14.01,2013-10-18 22:12:00,
2013-10-18 17:17:00,75.2,62.6,29.98,SE,135,4.0,4.0,65,0.00,,---,0.04,VWS V14.01,2013-10-18 22:17:00,
2013-10-18 17:22:00,75.0,62.5,29.98,NE,45,3.1,3.1,65,0.00,,---,0.04,VWS V14.01,2013-10-18 22:22:00,
2013-10-18 17:27:00,74.8,62.3,29.98,SE,135,0.0,0.0,65,0.00,,---,0.04,VWS V14.01,2013-10-18 22:27:00,
2013-10-18 17:32:00,74.8,62.3,29.97,ENE,68,2.6,2.6,65,0.00,,---,0.04,VWS V14.01,2013-10-18 22:32:00,
2013-10-18 17:37:00,74.6,61.6,29.97,SSE,158,2.9,2.9,64,0.00,,---,0.04,VWS V14.01,2013-10-18 22:37:00,
2013-10-18 17:42:00,74.3,61.3,29.97,East,90,2.4,2.4,64,0.00,,---,0.04,VWS V14.01,2013-10-18 22:42:00,
2013-10-18 17:47:00,74.3,62.2,29.97,ESE,112,4.9,4.9,66,0.00,,---,0.04,VWS V14.01,2013-10-18 22:47:00,
2013-10-18 17:53:00,74.1,62.0,29.97,ESE,112,0.0,0.0,66,0.00,,---,0.04,VWS V14.01,2013-10-18 22:53:00,
2013-10-18 17:58:00,73.9,61.8,29.97,SSE,158,0.8,0.8,66,0.00,,---,0.04,VWS V14.01,2013-10-18 22:58:00,
2013-10-18 18:03:00,73.9,61.8,29.98,SE,135,0.0,0.0,66,0.00,,---,0.04,VWS V14.01,2013-10-18 23:03:00,
2013-10-18 18:08:00,73.5,61.5,29.98,SE,135,6.2,6.2,66,0.00,,---,0.04,VWS V14.01,2013-10-18 23:08:00,
2013-10-18 18:13:00,73.5,61.5,29.98,ESE,112,7.1,7.1,66,0.00,,---,0.04,VWS V14.01,2013-10-18 23:13:00,
2013-10-18 18:18:00,73.4,61.8,29.98,ENE,68,2.4,2.4,67,0.00,,---,0.04,VWS V14.01,2013-10-18 23:18:00,
2013-10-18 18:23:00,73.0,61.4,29.99,SE,135,0.0,1.3,67,0.00,,---,0.04,VWS V14.01,2013-10-18 23:23:00,
2013-10-18 18:28:00,72.8,61.6,29.99,NE,45,5.1,5.1,68,0.00,,---,0.04,VWS V14.01,2013-10-18 23:28:00,
2013-10-18 18:33:00,72.6,61.4,29.98,ESE,112,3.1,4.4,68,0.00,,---,0.04,VWS V14.01,2013-10-18 23:33:00,
2013-10-18 18:38:00,72.5,61.8,29.99,ESE,112,4.2,4.2,69,0.00,,---,0.04,VWS V14.01,2013-10-18 23:38:00,
2013-10-18 18:43:00,72.5,61.8,29.99,ENE,68,0.0,0.0,69,0.00,,---,0.04,VWS V14.01,2013-10-18 23:43:00,
2013-10-18 18:48:00,72.5,61.8,29.99,ESE,112,0.0,0.0,69,0.00,,---,0.04,VWS V14.01,2013-10-18 23:48:00,
2013-10-18 18:53:00,72.5,62.2,29.98,ESE,112,0.0,0.0,70,0.00,,---,0.04,VWS V14.01,2013-10-18 23:53:00,
2013-10-18 18:58:00,72.3,62.4,29.98,ESE,112,0.0,0.0,71,0.00,,---,0.04,VWS V14.01,2013-10-18 23:58:00,
2013-10-18 19:03:00,72.3,62.8,29.98,East,90,0.0,0.0,72,0.00,,---,0.04,VWS V14.01,2013-10-19 00:03:00,
2013-10-18 19:08:00,72.1,62.6,29.98,SE,135,0.0,0.0,72,0.00,,---,0.04,VWS V14.01,2013-10-19 00:08:00,
2013-10-18 19:13:00,72.1,63.0,29.99,SE,135,1.7,1.7,73,0.00,,---,0.04,VWS V14.01,2013-10-19 00:13:00,
2013-10-18 19:18:00,71.9,62.8,29.99,NE,45,0.0,0.0,73,0.00,,---,0.04,VWS V14.01,2013-10-19 00:18:00,
2013-10-18 19:23:00,71.9,63.2,29.99,ESE,112,0.0,0.0,74,0.00,,---,0.04,VWS V14.01,2013-10-19 00:23:00,
2013-10-18 19:28:00,71.9,63.2,29.99,ESE,112,0.0,0.0,74,0.00,,---,0.04,VWS V14.01,2013-10-19 00:28:00,
2013-10-18 19:33:00,71.7,63.0,29.99,North,0,0.0,0.0,74,0.00,,---,0.04,VWS V14.01,2013-10-19 00:33:00,
2013-10-18 19:39:00,71.7,63.4,29.99,ESE,112,0.0,0.0,75,0.00,,---,0.04,VWS V14.01,2013-10-19 00:39:00,
2013-10-18 19:44:00,71.7,63.4,29.99,East,90,0.0,0.0,75,0.00,,---,0.04,VWS V14.01,2013-10-19 00:44:00,
2013-10-18 19:49:00,71.7,63.7,30.00,SE,135,0.0,0.0,76,0.00,,---,0.04,VWS V14.01,2013-10-19 00:49:00,
2013-10-18 19:54:00,71.7,63.7,29.99,NE,45,0.0,0.0,76,0.00,,---,0.04,VWS V14.01,2013-10-19 00:54:00,
2013-10-18 19:59:00,71.4,63.5,30.00,ESE,112,0.0,0.0,76,0.00,,---,0.04,VWS V14.01,2013-10-19 00:59:00,
2013-10-18 20:04:00,71.4,63.8,30.00,SE,135,0.0,0.0,77,0.00,,---,0.04,VWS V14.01,2013-10-19 01:04:00,
2013-10-18 20:09:00,71.4,63.8,30.00,East,90,0.0,0.0,77,0.00,,---,0.04,VWS V14.01,2013-10-19 01:09:00,
2013-10-18 20:14:00,71.2,63.6,30.00,ENE,68,0.0,0.0,77,0.00,,---,0.04,VWS V14.01,2013-10-19 01:14:00,
2013-10-18 20:19:00,71.2,63.6,30.00,ESE,112,0.0,0.0,77,0.00,,---,0.04,VWS V14.01,2013-10-19 01:19:00,
2013-10-18 20:24:00,71.2,64.0,30.00,East,90,0.0,0.0,78,0.00,,---,0.04,VWS V14.01,2013-10-19 01:24:00,
2013-10-18 20:29:00,71.2,64.0,30.00,ENE,68,0.0,0.0,78,0.00,,---,0.04,VWS V14.01,2013-10-19 01:29:00,
2013-10-18 20:34:00,71.2,64.0,30.00,NE,45,0.0,0.0,78,0.00,,---,0.04,VWS V14.01,2013-10-19 01:34:00,
2013-10-18 20:39:00,71.2,64.0,30.00,ENE,68,0.0,0.0,78,0.00,,---,0.04,VWS V14.01,2013-10-19 01:39:00,
2013-10-18 20:44:00,71.2,64.0,30.00,NE,45,0.0,0.0,78,0.00,,---,0.04,VWS V14.01,2013-10-19 01:44:00,
2013-10-18 20:49:00,71.2,64.4,30.00,NE,45,0.0,0.0,79,0.00,,---,0.04,VWS V14.01,2013-10-19 01:49:00,
2013-10-18 20:54:00,71.2,64.4,30.00,ENE,68,0.0,0.0,79,0.00,,---,0.04,VWS V14.01,2013-10-19 01:54:00,
2013-10-18 21:00:00,71.2,64.4,30.00,NE,45,0.0,0.0,79,0.00,,---,0.04,VWS V14.01,2013-10-19 02:00:00,
2013-10-18 21:05:00,71.0,64.2,30.00,ENE,68,0.0,0.0,79,0.00,,---,0.04,VWS V14.01,2013-10-19 02:05:00,
2013-10-18 21:10:00,71.2,64.4,30.00,NE,45,0.0,0.0,79,0.00,,---,0.04,VWS V14.01,2013-10-19 02:10:00,
2013-10-18 21:15:00,71.2,64.7,30.00,East,90,0.0,0.0,80,0.00,,---,0.04,VWS V14.01,2013-10-19 02:15:00,
2013-10-18 21:20:00,71.2,64.7,30.00,NE,45,0.0,0.0,80,0.00,,---,0.04,VWS V14.01,2013-10-19 02:20:00,
2013-10-18 21:25:00,71.0,64.5,30.00,NNE,22,0.0,0.0,80,0.00,,---,0.04,VWS V14.01,2013-10-19 02:25:00,
2013-10-18 21:30:00,71.0,64.5,30.00,ESE,112,0.0,0.0,80,0.00,,---,0.04,VWS V14.01,2013-10-19 02:30:00,
2013-10-18 21:35:00,71.0,64.5,30.00,ESE,112,0.0,0.0,80,0.00,,---,0.04,VWS V14.01,2013-10-19 02:35:00,
2013-10-18 21:40:00,71.0,64.5,30.00,ESE,112,0.0,0.0,80,0.00,,---,0.04,VWS V14.01,2013-10-19 02:40:00,
2013-10-18 21:45:00,71.0,64.5,30.00,East,90,0.0,0.0,80,0.00,,---,0.04,VWS V14.01,2013-10-19 02:45:00,
2013-10-18 21:50:00,70.8,64.3,30.00,NE,45,0.0,0.0,80,0.00,,---,0.04,VWS V14.01,2013-10-19 02:50:00,
2013-10-18 21:55:00,70.8,64.3,30.00,ENE,68,0.0,0.0,80,0.00,,---,0.04,VWS V14.01,2013-10-19 02:55:00,
2013-10-18 22:00:00,70.8,64.3,30.00,ENE,68,3.1,3.1,80,0.00,,---,0.04,VWS V14.01,2013-10-19 03:00:00,
2013-10-18 22:05:00,70.7,64.2,30.00,ESE,112,0.0,0.0,80,0.00,,---,0.04,VWS V14.01,2013-10-19 03:05:00,
2013-10-18 22:10:00,70.8,64.3,30.00,NE,45,0.0,0.0,80,0.00,,---,0.04,VWS V14.01,2013-10-19 03:10:00,
2013-10-18 22:15:00,70.7,64.2,30.01,ESE,112,0.0,0.0,80,0.00,,---,0.04,VWS V14.01,2013-10-19 03:15:00,
2013-10-18 22:20:00,70.7,64.2,30.00,SE,135,0.0,0.0,80,0.00,,---,0.04,VWS V14.01,2013-10-19 03:20:00,
2013-10-18 22:25:00,70.7,64.6,30.01,NE,45,0.0,0.0,81,0.00,,---,0.04,VWS V14.01,2013-10-19 03:25:00,
2013-10-18 22:30:00,70.7,64.6,30.01,ENE,68,0.0,0.0,81,0.00,,---,0.04,VWS V14.01,2013-10-19 03:30:00,
2013-10-18 22:36:00,70.5,64.8,30.01,NNE,22,0.0,0.0,82,0.00,,---,0.04,VWS V14.01,2013-10-19 03:36:00,
2013-10-18 22:41:00,70.7,64.6,30.01,ENE,68,0.0,0.0,81,0.00,,---,0.04,VWS V14.01,2013-10-19 03:41:00,
2013-10-18 22:46:00,70.5,64.8,30.02,NNE,22,0.0,0.0,82,0.00,,---,0.04,VWS V14.01,2013-10-19 03:46:00,
2013-10-18 22:51:00,70.5,64.8,30.02,NNW,338,0.0,0.0,82,0.00,,---,0.04,VWS V14.01,2013-10-19 03:51:00,
2013-10-18 22:56:00,70.5,64.8,30.02,NE,45,0.0,0.0,82,0.00,,---,0.04,VWS V14.01,2013-10-19 03:56:00,
2013-10-18 23:01:00,70.5,64.8,30.02,NNE,22,0.0,0.0,82,0.00,,---,0.04,VWS V14.01,2013-10-19 04:01:00,
2013-10-18 23:04:00,70.5,65.1,30.02,East,90,0.0,0.0,83,0.00,,---,0.04,VWS V14.01,2013-10-19 04:04:00,
2013-10-18 23:09:00,70.5,65.1,30.01,North,0,0.0,0.0,83,0.00,,---,0.04,VWS V14.01,2013-10-19 04:09:00,
2013-10-18 23:10:00,70.5,65.1,30.01,North,0,0.0,0.0,83,0.00,,---,0.04,VWS V14.01,2013-10-19 04:10:00,
2013-10-18 23:15:00,70.5,65.1,30.01,NE,45,0.0,0.0,83,0.00,,---,0.04,VWS V14.01,2013-10-19 04:15:00,
2013-10-18 23:20:00,70.3,64.9,30.02,NNE,22,0.0,0.0,83,0.00,,---,0.04,VWS V14.01,2013-10-19 04:20:00,
2013-10-18 23:25:00,70.5,65.1,30.02,NNE,22,0.0,0.0,83,0.00,,---,0.04,VWS V14.01,2013-10-19 04:25:00,
2013-10-18 23:30:00,70.3,64.9,30.02,NW,315,0.0,0.0,83,0.00,,---,0.04,VWS V14.01,2013-10-19 04:30:00,
2013-10-18 23:36:00,70.3,64.9,30.02,North,0,0.0,0.0,83,0.00,,---,0.04,VWS V14.01,2013-10-19 04:36:00,
2013-10-18 23:41:00,70.3,64.9,30.03,North,0,2.0,2.0,83,0.00,,---,0.04,VWS V14.01,2013-10-19 04:41:00,
2013-10-18 23:46:00,70.1,64.4,30.03,North,0,1.1,1.1,82,0.00,,---,0.04,VWS V14.01,2013-10-19 04:46:00,
2013-10-18 23:51:00,69.9,64.2,30.03,North,0,0.0,0.0,82,0.00,,---,0.04,VWS V14.01,2013-10-19 04:51:00,
2013-10-18 23:56:00,69.8,64.1,30.03,NNE,22,3.8,3.8,82,0.00,,---,0.04,VWS V14.01,2013-10-19 04:56:00,